Time;durP1;ratioP1;P1;durP2;ratioP2;P2;SDS_P1;SDS_P2;PMS_P1;PMS_P2;Temp;Humidity;BMP_temperature;BMP_pressure;BME280_temperature;BME280_humidity;BME280_pressure;Samples;Min_cycle;Max_cycle;Signal;HPM_P1;HPM_P2
2021/06/09 00:02:20;;;;;;;1.50;1.00;;;17.40;98.20;;;;;;5039966;28;20483;-81
2021/06/09 00:04:46;;;;;;;1.50;1.00;;;17.40;98.20;;;;;;5051946;28;20515;-81
2021/06/09 00:07:13;;;;;;;1.50;1.00;;;17.40;98.20;;;;;;5043104;28;20493;-81
2021/06/09 00:09:39;;;;;;;1.50;0.90;;;17.40;98.20;;;;;;5050658;28;20455;-81
2021/06/09 00:12:08;;;;;;;1.50;1.00;;;17.40;98.20;;;;;;5044901;28;20485;-81
2021/06/09 00:14:35;;;;;;;1.53;1.00;;;17.40;98.20;;;;;;5040619;28;20832;-81
2021/06/09 00:17:01;;;;;;;1.50;0.93;;;17.40;98.20;;;;;;5037573;28;20612;-81
2021/06/09 00:19:27;;;;;;;1.50;0.90;;;17.30;98.20;;;;;;5050923;28;20473;-81
2021/06/09 00:21:55;;;;;;;1.50;1.00;;;17.30;98.20;;;;;;5042542;28;20479;-81
2021/06/09 00:24:23;;;;;;;1.57;1.00;;;17.30;98.20;;;;;;5050496;28;20516;-81
2021/06/09 00:26:51;;;;;;;1.50;0.90;;;17.30;98.20;;;;;;5037864;28;20474;-82
2021/06/09 00:29:20;;;;;;;1.50;1.10;;;17.20;98.20;;;;;;5059478;28;20469;-81
2021/06/09 00:31:46;;;;;;;1.50;1.00;;;17.20;98.20;;;;;;5042999;28;20577;-81
2021/06/09 00:34:13;;;;;;;1.50;0.90;;;17.20;98.20;;;;;;5054321;28;20464;-80
2021/06/09 00:36:39;;;;;;;1.50;1.00;;;17.20;98.20;;;;;;5045362;28;20478;-81
2021/06/09 00:39:06;;;;;;;1.50;1.00;;;17.10;98.20;;;;;;5055893;28;20466;-80
2021/06/09 00:41:33;;;;;;;1.50;1.00;;;17.10;98.20;;;;;;5049074;28;20523;-80
2021/06/09 00:44:01;;;;;;;1.50;1.00;;;17.10;98.20;;;;;;5039191;28;20463;-81
2021/06/09 00:46:34;;;;;;;1.50;1.00;;;17.00;98.20;;;;;;5043343;28;20698;-81
2021/06/09 00:49:00;;;;;;;1.50;1.00;;;17.00;98.20;;;;;;5056698;28;20459;-81
2021/06/09 00:51:26;;;;;;;1.50;1.00;;;17.00;98.20;;;;;;5047309;28;20485;-81
2021/06/09 00:53:54;;;;;;;1.50;1.00;;;17.00;98.20;;;;;;5058660;28;20859;-81
2021/06/09 00:56:23;;;;;;;1.50;0.90;;;17.00;98.20;;;;;;5049003;28;20493;-81
2021/06/09 00:58:51;;;;;;;1.43;0.90;;;17.00;98.20;;;;;;5054953;28;20481;-81
2021/06/09 01:01:20;;;;;;;1.50;1.00;;;16.90;98.20;;;;;;5047409;28;21067;-80
2021/06/09 01:03:48;;;;;;;1.50;1.00;;;16.90;98.20;;;;;;5037977;28;20802;-80
2021/06/09 01:06:15;;;;;;;1.50;0.90;;;16.90;98.20;;;;;;5041640;28;20469;-81
2021/06/09 01:08:43;;;;;;;1.50;1.00;;;16.90;98.20;;;;;;5055863;28;20481;-81
2021/06/09 01:11:16;;;;;;;1.50;1.00;;;16.90;98.20;;;;;;5047915;28;20512;-81
2021/06/09 01:13:43;;;;;;;1.50;0.97;;;16.90;98.20;;;;;;5055421;28;20980;-81
2021/06/09 01:16:10;;;;;;;1.50;1.00;;;16.80;98.20;;;;;;5044971;28;21189;-81
2021/06/09 01:18:37;;;;;;;1.50;1.00;;;16.80;98.20;;;;;;5057539;28;20466;-81
2021/06/09 01:21:05;;;;;;;1.50;1.00;;;16.80;98.20;;;;;;5048082;28;20493;-81
2021/06/09 01:23:34;;;;;;;1.50;1.00;;;16.80;98.20;;;;;;5057777;28;20610;-81
2021/06/09 01:26:01;;;;;;;1.50;1.00;;;16.80;98.20;;;;;;5045841;28;20478;-80
2021/06/09 01:28:28;;;;;;;1.50;1.00;;;16.80;98.20;;;;;;5055445;28;20959;-80
2021/06/09 01:30:55;;;;;;;1.50;1.00;;;16.70;98.20;;;;;;5040863;28;20481;-81
2021/06/09 01:33:22;;;;;;;1.50;1.10;;;16.70;98.20;;;;;;5055749;28;20538;-81
2021/06/09 01:35:51;;;;;;;1.50;0.90;;;16.70;98.20;;;;;;5045888;28;20976;-81
2021/06/09 01:38:17;;;;;;;1.50;1.00;;;16.70;98.20;;;;;;5057988;28;20450;-81
2021/06/09 01:40:45;;;;;;;1.50;1.00;;;16.70;98.20;;;;;;5038098;28;20490;-81
2021/06/09 01:43:11;;;;;;;1.50;1.00;;;16.70;98.20;;;;;;5043970;28;20481;-81
2021/06/09 01:45:39;;;;;;;1.50;0.90;;;16.60;98.20;;;;;;5057052;28;20465;-81
2021/06/09 01:48:06;;;;;;;1.50;1.00;;;16.70;98.20;;;;;;5029947;28;20487;-81
2021/06/09 01:50:34;;;;;;;1.57;1.00;;;16.60;98.20;;;;;;5038525;28;20562;-82
2021/06/09 01:53:03;;;;;;;1.50;1.00;;;16.60;98.20;;;;;;5045390;28;20492;-81
2021/06/09 01:55:30;;;;;;;1.57;1.00;;;16.50;98.20;;;;;;5058069;28;20470;-81
2021/06/09 01:57:58;;;;;;;1.50;0.97;;;16.50;98.20;;;;;;5030985;28;20507;-82
2021/06/09 02:00:28;;;;;;;1.50;1.10;;;16.50;98.20;;;;;;5056313;28;20571;-82
2021/06/09 02:02:58;;;;;;;1.50;1.00;;;16.60;98.20;;;;;;5031208;28;20488;-82
2021/06/09 02:05:26;;;;;;;1.50;1.00;;;16.60;98.20;;;;;;5057577;28;20458;-82
2021/06/09 02:07:52;;;;;;;1.50;1.00;;;16.60;98.20;;;;;;5064855;28;20481;-83
2021/06/09 02:10:21;;;;;;;1.50;1.00;;;16.60;98.20;;;;;;5069729;28;20482;-82
2021/06/09 02:12:50;;;;;;;1.50;1.00;;;16.60;98.20;;;;;;5062946;28;20489;-83
2021/06/09 02:15:19;;;;;;;1.50;0.90;;;16.60;98.20;;;;;;5060749;28;20558;-82
2021/06/09 02:17:56;;;;;;;1.50;0.90;;;16.60;98.20;;;;;;5044047;28;20490;-82
2021/06/09 02:20:24;;;;;;;1.53;1.03;;;16.60;98.20;;;;;;5057174;28;20476;-83
2021/06/09 02:22:51;;;;;;;1.50;0.93;;;16.50;98.20;;;;;;5044241;28;20504;-82
2021/06/09 02:25:18;;;;;;;1.50;1.00;;;16.50;98.20;;;;;;5054811;28;20953;-82
2021/06/09 02:27:44;;;;;;;1.50;0.90;;;16.50;98.20;;;;;;5046822;28;20490;-82
2021/06/09 02:30:12;;;;;;;1.50;1.00;;;16.40;98.20;;;;;;5054883;28;21235;-83
2021/06/09 02:32:41;;;;;;;1.50;0.90;;;16.40;98.20;;;;;;5041817;28;20490;-83
2021/06/09 02:35:13;;;;;;;1.50;0.90;;;16.40;98.20;;;;;;5048353;28;20542;-83
2021/06/09 02:37:40;;;;;;;1.50;0.90;;;16.40;98.20;;;;;;5042767;28;21146;-83
2021/06/09 02:40:08;;;;;;;1.50;0.90;;;16.40;98.20;;;;;;5058114;28;20483;-82
2021/06/09 02:42:36;;;;;;;1.50;1.00;;;16.30;98.20;;;;;;5037384;28;20503;-83
2021/06/09 02:45:06;;;;;;;1.50;0.90;;;16.30;98.20;;;;;;5044383;28;20470;-83
2021/06/09 02:47:34;;;;;;;1.57;1.00;;;16.30;98.20;;;;;;5046220;28;20901;-83
2021/06/09 02:50:04;;;;;;;1.50;0.97;;;16.30;98.20;;;;;;5056115;28;20908;-83
2021/06/09 02:52:34;;;;;;;1.50;0.93;;;16.30;98.20;;;;;;5018343;28;20487;-83
2021/06/09 02:55:09;;;;;;;1.50;1.00;;;16.30;98.20;;;;;;5036140;28;20482;-82
2021/06/09 02:57:41;;;;;;;1.50;1.00;;;16.30;98.20;;;;;;5041453;28;21089;-83
2021/06/09 03:00:11;;;;;;;1.50;1.00;;;16.30;98.20;;;;;;5056100;28;20482;-83
2021/06/09 03:02:46;;;;;;;1.50;0.90;;;16.30;98.20;;;;;;5045526;28;21004;-83
2021/06/09 03:05:21;;;;;;;1.50;1.00;;;16.20;98.20;;;;;;5047252;28;20455;-83
2021/06/09 03:07:57;;;;;;;1.50;1.00;;;16.20;98.20;;;;;;5039568;28;20489;-83
2021/06/09 03:10:34;;;;;;;1.53;1.00;;;16.20;98.20;;;;;;5055141;28;20526;-83
2021/06/09 03:13:07;;;;;;;1.60;1.00;;;16.20;98.20;;;;;;5045129;28;20478;-83
2021/06/09 03:15:40;;;;;;;1.50;1.00;;;16.20;98.20;;;;;;5047258;28;20466;-83
2021/06/09 03:18:13;;;;;;;1.50;0.90;;;16.20;98.20;;;;;;5045254;28;20620;-82
2021/06/09 03:20:51;;;;;;;1.57;1.00;;;16.20;98.20;;;;;;5056510;28;20489;-82
2021/06/09 03:23:25;;;;;;;1.50;0.90;;;16.20;98.20;;;;;;5029222;28;20470;-83
2021/06/09 03:25:57;;;;;;;1.50;1.10;;;16.20;98.20;;;;;;5047195;28;20460;-82
2021/06/09 03:28:29;;;;;;;1.50;1.00;;;16.10;98.20;;;;;;5048226;28;20870;-82
2021/06/09 03:30:59;;;;;;;1.50;0.93;;;16.10;98.20;;;;;;5043256;28;20486;-82
2021/06/09 03:33:34;;;;;;;1.50;1.00;;;16.10;98.20;;;;;;5053813;28;20459;-83
2021/06/09 03:36:08;;;;;;;1.50;1.00;;;16.10;98.20;;;;;;5044876;28;20465;-82
2021/06/09 03:38:39;;;;;;;1.50;1.00;;;16.10;98.20;;;;;;5053826;28;20461;-83
2021/06/09 03:41:10;;;;;;;1.50;1.00;;;16.10;98.20;;;;;;5044415;28;20523;-82
2021/06/09 03:43:40;;;;;;;1.50;1.00;;;16.10;98.20;;;;;;5053181;28;20964;-83
2021/06/09 03:46:07;;;;;;;1.57;1.03;;;16.10;98.20;;;;;;5043707;28;20470;-82
2021/06/09 03:48:38;;;;;;;1.50;1.00;;;16.10;98.20;;;;;;5054010;28;20524;-83
2021/06/09 03:51:08;;;;;;;1.50;0.90;;;16.10;98.20;;;;;;5044304;28;20474;-85
2021/06/09 03:53:36;;;;;;;1.50;1.00;;;16.10;98.20;;;;;;5054260;28;20462;-84
2021/06/09 03:56:05;;;;;;;1.50;1.00;;;16.00;98.20;;;;;;5043796;28;20550;-83
2021/06/09 03:58:32;;;;;;;1.50;1.10;;;16.10;98.20;;;;;;5051299;28;20515;-84
2021/06/09 04:00:59;;;;;;;1.57;1.00;;;16.10;98.20;;;;;;5044524;28;20470;-84
2021/06/09 04:03:27;;;;;;;1.50;1.00;;;16.10;98.20;;;;;;5063282;28;20454;-83
2021/06/09 04:05:55;;;;;;;1.50;1.00;;;16.10;98.20;;;;;;5027010;28;20451;-86
2021/06/09 04:08:24;;;;;;;1.50;0.90;;;16.10;98.20;;;;;;5051373;28;20466;-84
2021/06/09 04:10:52;;;;;;;1.50;1.03;;;16.10;98.20;;;;;;5041396;28;20478;-83
2021/06/09 04:13:18;;;;;;;1.53;1.00;;;16.10;98.20;;;;;;5047362;28;20462;-84
2021/06/09 04:15:46;;;;;;;1.50;1.10;;;16.20;98.20;;;;;;5044315;28;20525;-83
2021/06/09 04:18:15;;;;;;;1.50;1.00;;;16.20;98.20;;;;;;5063975;28;20467;-84
2021/06/09 04:20:42;;;;;;;1.50;0.90;;;16.20;98.20;;;;;;5055982;28;20478;-83
2021/06/09 04:23:10;;;;;;;1.50;1.00;;;16.30;98.20;;;;;;5045101;28;20577;-83
2021/06/09 04:25:38;;;;;;;1.50;0.90;;;16.30;98.20;;;;;;5052400;28;20588;-83
2021/06/09 04:28:07;;;;;;;1.50;0.90;;;16.30;98.20;;;;;;5025917;28;20570;-82
2021/06/09 04:30:33;;;;;;;1.57;1.00;;;16.40;98.20;;;;;;5057224;28;20486;-84
2021/06/09 04:33:02;;;;;;;1.57;1.00;;;16.40;98.20;;;;;;5045510;28;20546;-84
2021/06/09 04:35:35;;;;;;;1.53;1.00;;;16.40;98.20;;;;;;5038773;28;20483;-82
2021/06/09 04:38:01;;;;;;;1.50;1.00;;;16.50;98.20;;;;;;5041389;28;20479;-83
2021/06/09 04:40:29;;;;;;;1.57;1.00;;;16.50;98.20;;;;;;5055157;28;20486;-83
2021/06/09 04:42:58;;;;;;;1.50;1.00;;;16.60;98.20;;;;;;5040359;28;20598;-83
2021/06/09 04:45:26;;;;;;;1.50;1.00;;;16.70;98.20;;;;;;5056125;28;20507;-83
2021/06/09 04:47:53;;;;;;;1.50;0.90;;;16.80;98.20;;;;;;5041244;28;20510;-83
2021/06/09 04:50:21;;;;;;;2.37;1.10;;;16.90;98.20;;;;;;5054558;28;20523;-83
2021/06/09 04:52:49;;;;;;;1.50;1.10;;;17.00;98.20;;;;;;5032958;28;20487;-82
2021/06/09 04:55:15;;;;;;;1.50;1.00;;;17.10;98.20;;;;;;5053920;28;20560;-82
2021/06/09 04:57:42;;;;;;;1.50;1.00;;;17.20;98.20;;;;;;5044444;28;20485;-83
2021/06/09 05:00:12;;;;;;;1.57;1.00;;;17.40;98.20;;;;;;5057197;28;20514;-83
2021/06/09 05:02:39;;;;;;;1.50;0.90;;;17.50;98.20;;;;;;5057775;28;20485;-83
2021/06/09 05:05:06;;;;;;;1.50;0.90;;;17.70;98.20;;;;;;5076400;28;20457;-82
2021/06/09 05:07:33;;;;;;;1.53;1.00;;;17.90;98.20;;;;;;5047257;28;20493;-82
2021/06/09 05:09:59;;;;;;;1.50;1.00;;;18.00;98.20;;;;;;5049234;28;20488;-82
2021/06/09 05:12:30;;;;;;;1.50;0.93;;;18.20;98.20;;;;;;5048699;28;20474;-82
2021/06/09 05:15:00;;;;;;;1.57;1.00;;;18.30;98.20;;;;;;5058399;28;20458;-83
2021/06/09 05:17:33;;;;;;;1.50;0.90;;;18.50;98.20;;;;;;5061973;28;20579;-83
2021/06/09 05:20:01;;;;;;;1.80;1.40;;;18.70;98.20;;;;;;5059740;28;20478;-83
2021/06/09 05:22:31;;;;;;;1.50;1.00;;;18.80;98.20;;;;;;5048773;28;21000;-82
2021/06/09 05:25:03;;;;;;;1.50;1.00;;;19.00;98.20;;;;;;5058754;28;20454;-82
2021/06/09 05:27:30;;;;;;;1.50;1.00;;;19.20;98.20;;;;;;5045847;28;20510;-82
2021/06/09 05:29:57;;;;;;;1.53;0.90;;;19.30;98.20;;;;;;5058342;28;20482;-81
2021/06/09 05:32:25;;;;;;;1.50;0.90;;;19.50;98.20;;;;;;5046709;28;20551;-83
2021/06/09 05:34:53;;;;;;;1.50;1.00;;;19.70;98.20;;;;;;5058590;28;20461;-82
2021/06/09 05:37:20;;;;;;;1.50;0.90;;;19.80;98.20;;;;;;5045804;28;20508;-82
2021/06/09 05:39:46;;;;;;;1.50;0.90;;;19.90;98.20;;;;;;5046110;28;20847;-83
2021/06/09 05:42:14;;;;;;;1.50;0.90;;;20.00;97.80;;;;;;5043796;28;20551;-82
2021/06/09 05:44:42;;;;;;;1.50;0.90;;;20.10;97.70;;;;;;5056307;28;20466;-82
2021/06/09 05:47:08;;;;;;;1.50;0.90;;;20.20;96.90;;;;;;5035028;28;20487;-82
2021/06/09 05:49:35;;;;;;;1.50;1.00;;;20.20;97.00;;;;;;5051282;28;20462;-82
2021/06/09 05:52:03;;;;;;;1.50;0.90;;;20.20;97.00;;;;;;5047446;28;20952;-82
2021/06/09 05:54:34;;;;;;;1.50;0.97;;;20.40;96.80;;;;;;5056497;28;20720;-81
2021/06/09 05:57:02;;;;;;;1.50;1.00;;;20.40;96.30;;;;;;5038882;28;20483;-82
2021/06/09 05:59:32;;;;;;;1.50;0.90;;;20.50;96.70;;;;;;5065482;28;20462;-81
2021/06/09 06:01:59;;;;;;;1.60;1.10;;;20.70;96.10;;;;;;5061513;28;20509;-81
2021/06/09 06:04:29;;;;;;;1.50;0.90;;;20.90;95.70;;;;;;5053714;28;20448;-81
2021/06/09 06:06:58;;;;;;;1.53;1.00;;;21.00;95.40;;;;;;5043040;28;21181;-82
2021/06/09 06:09:27;;;;;;;1.50;0.90;;;21.20;95.40;;;;;;5042286;28;20470;-81
2021/06/09 06:11:54;;;;;;;1.50;0.90;;;21.40;95.10;;;;;;5045727;28;20671;-81
2021/06/09 06:14:24;;;;;;;1.50;1.00;;;21.60;94.50;;;;;;5074799;28;20880;-81
2021/06/09 06:16:53;;;;;;;1.50;0.90;;;21.90;94.20;;;;;;5043919;28;20473;-81
2021/06/09 06:19:20;;;;;;;1.50;0.93;;;22.20;93.00;;;;;;5056242;28;20478;-81
2021/06/09 06:21:48;;;;;;;1.50;0.90;;;22.40;91.60;;;;;;5039045;28;20869;-83
2021/06/09 06:24:17;;;;;;;1.50;0.90;;;22.50;90.50;;;;;;5055045;28;21043;-81
2021/06/09 06:26:47;;;;;;;1.50;0.90;;;22.60;91.10;;;;;;5048924;28;20494;-82
2021/06/09 06:29:14;;;;;;;1.50;0.90;;;22.70;90.80;;;;;;5060180;28;20520;-82
2021/06/09 06:31:41;;;;;;;1.93;1.73;;;22.80;90.90;;;;;;5046773;28;20489;-81
2021/06/09 06:34:08;;;;;;;1.50;0.90;;;22.90;92.00;;;;;;5066958;28;20453;-83
2021/06/09 06:36:37;;;;;;;1.53;1.10;;;22.90;92.40;;;;;;5050564;28;20493;-82
2021/06/09 06:39:04;;;;;;;1.50;0.90;;;22.90;92.60;;;;;;5058294;28;20463;-81
2021/06/09 06:41:31;;;;;;;1.50;0.90;;;23.00;92.30;;;;;;5051579;28;20500;-81
2021/06/09 06:44:01;;;;;;;1.50;1.00;;;23.20;92.10;;;;;;5063077;28;20457;-81
2021/06/09 06:46:28;;;;;;;1.50;0.90;;;23.40;91.60;;;;;;5048868;28;20482;-82
2021/06/09 06:48:55;;;;;;;1.50;0.90;;;23.40;91.50;;;;;;5052816;28;20458;-82
2021/06/09 06:51:26;;;;;;;1.50;0.90;;;23.40;91.00;;;;;;5048196;28;20934;-81
2021/06/09 06:53:55;;;;;;;1.50;0.90;;;23.60;90.90;;;;;;5060068;28;20473;-81
2021/06/09 06:56:23;;;;;;;1.50;0.90;;;23.90;90.20;;;;;;5050741;28;21019;-81
2021/06/09 06:58:51;;;;;;;1.50;0.90;;;24.10;89.10;;;;;;5055776;28;20563;-81
2021/06/09 07:01:21;;;;;;;1.60;0.90;;;24.30;88.70;;;;;;5044983;28;20485;-80
2021/06/09 07:03:48;;;;;;;1.50;0.90;;;24.60;88.10;;;;;;5054095;28;20624;-81
2021/06/09 07:06:15;;;;;;;1.50;0.90;;;24.80;88.40;;;;;;5057278;28;20935;-81
2021/06/09 07:08:42;;;;;;;1.50;0.90;;;25.00;87.80;;;;;;5057439;28;20832;-81
2021/06/09 07:11:12;;;;;;;1.50;0.80;;;25.20;86.50;;;;;;5037528;28;20975;-81
2021/06/09 07:13:38;;;;;;;1.50;0.90;;;25.30;86.50;;;;;;5032182;28;20501;-82
2021/06/09 07:16:06;;;;;;;1.50;0.90;;;25.40;86.30;;;;;;5043914;28;20462;-82
2021/06/09 07:18:36;;;;;;;5.60;2.03;;;25.60;86.60;;;;;;5058219;28;20869;-83
2021/06/09 07:21:03;;;;;;;1.50;0.90;;;25.70;85.60;;;;;;5039054;28;20482;-83
2021/06/09 07:23:29;;;;;;;1.50;0.90;;;25.90;86.40;;;;;;5040196;28;20466;-82
2021/06/09 07:25:56;;;;;;;1.50;0.80;;;26.10;84.70;;;;;;5043798;28;20511;-82
2021/06/09 07:28:22;;;;;;;1.50;0.90;;;26.30;83.90;;;;;;5045124;28;20625;-82
2021/06/09 07:30:51;;;;;;;1.50;0.90;;;26.50;83.70;;;;;;5035494;28;20486;-82
2021/06/09 07:33:17;;;;;;;1.50;0.90;;;26.60;82.10;;;;;;5049632;28;20462;-81
2021/06/09 07:35:45;;;;;;;1.50;0.80;;;26.70;82.30;;;;;;5047750;28;20469;-80
2021/06/09 07:38:18;;;;;;;1.50;0.90;;;26.80;81.40;;;;;;5023399;28;20553;-81
2021/06/09 07:40:49;;;;;;;1.50;0.90;;;26.80;81.40;;;;;;5051422;28;20481;-81
2021/06/09 07:43:22;;;;;;;1.50;0.90;;;26.90;81.00;;;;;;5021293;28;20535;-80
2021/06/09 07:45:50;;;;;;;1.50;0.90;;;27.00;80.30;;;;;;5038823;28;20952;-82
2021/06/09 07:48:18;;;;;;;1.90;1.60;;;27.00;80.50;;;;;;5048056;28;20517;-81
2021/06/09 07:50:51;;;;;;;1.50;0.90;;;27.00;80.80;;;;;;5046485;28;20508;-83
2021/06/09 07:53:18;;;;;;;1.50;0.90;;;27.10;79.30;;;;;;5023365;28;20500;-81
2021/06/09 07:55:47;;;;;;;1.50;0.87;;;27.20;79.00;;;;;;5044292;28;21312;-81
2021/06/09 07:58:16;;;;;;;1.50;0.90;;;27.40;78.90;;;;;;5035954;28;20678;-81
2021/06/09 08:00:43;;;;;;;1.50;0.90;;;27.60;79.10;;;;;;5050356;28;20484;-80
2021/06/09 08:03:10;;;;;;;1.50;0.80;;;27.70;79.50;;;;;;5038616;28;20483;-79
2021/06/09 08:05:40;;;;;;;1.50;0.90;;;27.70;79.20;;;;;;5047553;28;20933;-80
2021/06/09 08:08:12;;;;;;;1.50;0.80;;;27.70;78.40;;;;;;5038191;28;20489;-80
2021/06/09 08:10:40;;;;;;;1.50;0.90;;;27.80;78.40;;;;;;5050389;28;20481;-79
2021/06/09 08:13:07;;;;;;;1.50;0.80;;;27.90;78.40;;;;;;5043453;28;20496;-81
2021/06/09 08:15:35;;;;;;;1.50;0.90;;;28.00;78.50;;;;;;5040635;28;20470;-80
2021/06/09 08:18:03;;;;;;;1.47;0.80;;;28.10;77.80;;;;;;5049882;28;20505;-81
2021/06/09 08:20:32;;;;;;;1.50;0.90;;;28.10;77.70;;;;;;5051683;28;20489;-81
2021/06/09 08:22:59;;;;;;;1.50;0.80;;;28.20;77.30;;;;;;5039477;28;20714;-81
2021/06/09 08:25:27;;;;;;;1.60;1.20;;;28.20;77.80;;;;;;5051604;28;20517;-81
2021/06/09 08:27:55;;;;;;;1.50;0.90;;;28.30;78.60;;;;;;5031582;28;20486;-79
2021/06/09 08:30:23;;;;;;;1.50;0.90;;;28.30;78.40;;;;;;5040182;28;20564;-80
2021/06/09 08:32:50;;;;;;;1.50;0.80;;;28.40;76.90;;;;;;5039376;28;20537;-81
2021/06/09 08:35:17;;;;;;;1.50;0.90;;;28.50;76.90;;;;;;5043687;28;21031;-80
2021/06/09 08:37:45;;;;;;;1.50;0.90;;;28.60;77.00;;;;;;5041415;28;20754;-82
2021/06/09 08:40:13;;;;;;;1.47;0.80;;;28.70;77.30;;;;;;5053755;28;20856;-81
2021/06/09 08:42:43;;;;;;;1.50;0.90;;;28.80;76.90;;;;;;5040320;28;20485;-81
2021/06/09 08:45:11;;;;;;;1.50;0.80;;;29.00;76.40;;;;;;5055250;28;20499;-81
2021/06/09 08:47:39;;;;;;;1.50;0.80;;;29.00;76.70;;;;;;5048214;28;20568;-81
2021/06/09 08:50:08;;;;;;;1.50;0.80;;;29.10;76.40;;;;;;5053693;28;21004;-81
2021/06/09 08:52:35;;;;;;;1.50;0.80;;;29.10;75.90;;;;;;5045219;28;20485;-81
2021/06/09 08:55:02;;;;;;;1.50;0.90;;;29.20;75.30;;;;;;5048542;28;20526;-81
2021/06/09 08:57:28;;;;;;;1.50;0.80;;;29.30;76.70;;;;;;5054569;28;20563;-79
2021/06/09 08:59:56;;;;;;;1.47;0.80;;;29.50;75.10;;;;;;5053398;28;20492;-82
2021/06/09 09:02:22;;;;;;;1.43;0.80;;;29.60;75.10;;;;;;5044914;28;20485;-82
2021/06/09 09:04:51;;;;;;;1.50;0.87;;;29.60;73.90;;;;;;5051232;28;20708;-83
2021/06/09 09:07:20;;;;;;;1.50;0.80;;;29.40;73.70;;;;;;5042041;28;20485;-80
2021/06/09 09:09:47;;;;;;;1.50;0.80;;;29.30;75.60;;;;;;5054233;28;20697;-81
2021/06/09 09:12:13;;;;;;;1.50;0.90;;;29.40;74.40;;;;;;5046711;28;20552;-82
2021/06/09 09:14:40;;;;;;;1.50;0.80;;;29.50;75.40;;;;;;5052992;28;20461;-80
2021/06/09 09:17:10;;;;;;;1.43;0.80;;;29.60;74.50;;;;;;5048940;28;20476;-81
2021/06/09 09:19:40;;;;;;;1.50;0.87;;;29.60;75.10;;;;;;5062619;28;20507;-80
2021/06/09 09:22:08;;;;;;;1.47;0.90;;;29.60;74.40;;;;;;5059949;28;20499;-81
2021/06/09 09:24:40;;;;;;;1.50;0.80;;;29.50;74.10;;;;;;5056606;28;20468;-82
2021/06/09 09:27:08;;;;;;;1.50;0.80;;;29.40;75.10;;;;;;5045393;28;20485;-81
2021/06/09 09:29:34;;;;;;;1.50;0.87;;;29.50;75.40;;;;;;5049278;28;20515;-81
2021/06/09 09:32:05;;;;;;;1.50;0.80;;;29.60;75.50;;;;;;5032730;28;20500;-80
2021/06/09 09:34:39;;;;;;;1.47;0.80;;;29.60;74.60;;;;;;5037774;28;20516;-83
2021/06/09 09:37:21;;;;;;;1.47;0.80;;;29.60;73.40;;;;;;5040798;28;20477;-79
2021/06/09 09:39:50;;;;;;;1.47;0.90;;;29.60;74.40;;;;;;5051447;28;20488;-81
2021/06/09 09:42:30;;;;;;;1.47;0.80;;;29.80;74.20;;;;;;5047721;28;20743;-80
2021/06/09 09:45:31;;;;;;;1.50;0.80;;;30.00;73.80;;;;;;5048889;28;20534;-81
2021/06/09 09:48:18;;;;;;;1.47;0.87;;;30.10;73.10;;;;;;5038483;28;20477;-80
2021/06/09 09:50:51;;;;;;;1.47;0.80;;;30.10;72.40;;;;;;5063031;28;20577;-79
2021/06/09 09:53:21;;;;;;;1.47;0.80;;;30.20;72.70;;;;;;5030492;28;20464;-81
2021/06/09 09:56:03;;;;;;;1.60;1.10;;;30.20;71.70;;;;;;5039695;28;20608;-83
2021/06/09 09:58:32;;;;;;;1.50;0.90;;;30.30;69.40;;;;;;5042795;28;20957;-81
2021/06/09 10:01:20;;;;;;;1.50;0.80;;;30.40;71.90;;;;;;5044476;28;20535;-80
2021/06/09 10:03:48;;;;;;;1.97;1.33;;;30.50;71.20;;;;;;5082805;22;20471;-78
2021/06/09 10:06:25;;;;;;;1.47;0.83;;;30.40;69.60;;;;;;5060918;28;20468;-83
2021/06/09 10:08:57;;;;;;;1.50;0.90;;;30.50;71.00;;;;;;5063293;28;20457;-82
2021/06/09 10:14:21;;;;;;;1.43;0.80;;;30.80;69.70;;;;;;5053510;28;20485;-78
2021/06/09 10:17:00;;;;;;;1.50;0.80;;;31.10;71.40;;;;;;5030234;28;20479;-78
2021/06/09 10:19:38;;;;;;;1.50;0.80;;;31.10;69.50;;;;;;5042773;28;20523;-78
2021/06/09 10:22:15;;;;;;;1.47;0.80;;;30.80;69.90;;;;;;5038759;28;20784;-82
2021/06/09 10:24:49;;;;;;;1.50;1.00;;;30.70;70.80;;;;;;5054982;28;20489;-81
2021/06/09 10:27:20;;;;;;;1.43;0.90;;;30.50;70.20;;;;;;5039477;28;20489;-81
2021/06/09 10:29:50;;;;;;;1.50;0.90;;;30.40;71.10;;;;;;5031343;28;20463;-78
2021/06/09 10:32:17;;;;;;;1.50;0.80;;;30.40;70.50;;;;;;5021079;28;20569;-81
2021/06/09 10:34:45;;;;;;;1.47;0.83;;;30.50;70.60;;;;;;5034871;28;21099;-82
2021/06/09 10:37:17;;;;;;;1.50;0.80;;;30.70;70.50;;;;;;5034851;28;20485;-78
2021/06/09 10:39:45;;;;;;;1.47;0.80;;;30.80;69.90;;;;;;5050086;28;20544;-78
2021/06/09 10:42:14;;;;;;;3.40;1.83;;;31.00;69.60;;;;;;5035447;28;20334;-81
2021/06/09 10:44:45;;;;;;;1.43;0.80;;;31.10;69.80;;;;;;5042241;28;20488;-79
2021/06/09 10:47:27;;;;;;;1.43;0.80;;;31.30;70.40;;;;;;5028796;28;20565;-80
2021/06/09 10:50:01;;;;;;;1.47;0.80;;;31.60;68.10;;;;;;5036394;28;20307;-79
2021/06/09 10:52:38;;;;;;;1.43;0.80;;;31.90;67.90;;;;;;5028813;28;20234;-79
2021/06/09 10:55:08;;;;;;;1.47;0.80;;;32.00;67.60;;;;;;5048784;28;20485;-79
2021/06/09 10:57:37;;;;;;;1.47;0.80;;;32.20;66.30;;;;;;5024079;28;20235;-79
2021/06/09 11:00:08;;;;;;;1.43;0.80;;;32.40;66.00;;;;;;5051220;28;20200;-79
2021/06/09 11:02:41;;;;;;;1.43;0.80;;;32.40;65.90;;;;;;5042155;28;20719;-78
2021/06/09 11:05:15;;;;;;;1.50;0.90;;;32.50;66.80;;;;;;5038549;28;20258;-78
2021/06/09 11:07:51;;;;;;;1.47;0.80;;;32.50;65.80;;;;;;5048237;28;20234;-81
2021/06/09 11:10:40;;;;;;;1.47;0.80;;;32.30;66.10;;;;;;5053210;28;20212;-79
2021/06/09 11:13:11;;;;;;;1.50;0.80;;;32.10;66.70;;;;;;5040119;28;20656;-81
2021/06/09 11:15:44;;;;;;;1.50;0.80;;;32.00;65.90;;;;;;5051267;28;20255;-81
2021/06/09 11:18:17;;;;;;;1.47;0.90;;;31.90;67.50;;;;;;5035911;28;20227;-82
2021/06/09 11:21:02;;;;;;;1.70;1.43;;;31.90;64.90;;;;;;5032975;28;20315;-82
2021/06/09 11:23:33;;;;;;;1.70;0.90;;;32.00;65.90;;;;;;5026152;28;20227;-84
2021/06/09 11:26:07;;;;;;;1.47;0.80;;;32.10;66.30;;;;;;5040065;28;20249;-79
2021/06/09 11:28:45;;;;;;;1.43;0.80;;;32.30;66.80;;;;;;5045106;28;20600;-80
2021/06/09 11:31:22;;;;;;;1.50;0.80;;;32.50;67.10;;;;;;5037931;28;20290;-80
2021/06/09 11:34:10;;;;;;;1.43;0.80;;;32.70;66.10;;;;;;5048668;28;20329;-82
2021/06/09 11:39:28;;;;;;;1.47;0.80;;;32.90;65.10;;;;;;4986303;28;20201;-79
2021/06/09 11:42:14;;;;;;;1.47;0.80;;;33.00;65.70;;;;;;4979971;28;20233;-79
2021/06/09 11:44:46;;;;;;;1.50;0.80;;;33.00;66.10;;;;;;5036580;28;20231;-81
2021/06/09 11:47:22;;;;;;;1.43;0.80;;;32.80;65.70;;;;;;5025039;28;20325;-81
2021/06/09 11:49:53;;;;;;;1.47;0.80;;;32.90;65.00;;;;;;5037581;28;20204;-79
2021/06/09 11:52:25;;;;;;;1.43;0.80;;;33.00;65.30;;;;;;5026102;28;20228;-79
2021/06/09 11:55:21;;;;;;;1.43;0.80;;;33.00;64.70;;;;;;5050642;28;20259;-79
2021/06/09 11:58:07;;;;;;;1.43;0.80;;;33.00;62.60;;;;;;5041147;28;20297;-79
2021/06/09 12:00:53;;;;;;;1.50;1.00;;;33.00;61.90;;;;;;5053211;28;20231;-79
2021/06/09 12:03:25;;;;;;;1.47;0.80;;;33.10;61.90;;;;;;5024023;28;20234;-80
2021/06/09 12:09:02;;;;;;;1.60;1.25;;;33.40;64.30;;;;;;4921857;28;20212;-82
2021/06/09 12:11:40;;;;;;;1.70;1.37;;;33.60;61.00;;;;;;5034583;28;20286;-81
2021/06/09 12:14:56;;;;;;;1.48;0.80;;;33.50;61.90;;;;;;5040222;28;20218;-80
2021/06/09 12:17:26;;;;;;;1.50;0.90;;;33.30;62.60;;;;;;5037549;28;20253;-82
2021/06/09 12:19:58;;;;;;;1.50;0.80;;;33.30;62.60;;;;;;5050189;28;20278;-81
2021/06/09 12:22:27;;;;;;;1.50;0.90;;;33.20;62.90;;;;;;5028875;28;20278;-82
2021/06/09 12:25:03;;;;;;;1.48;0.80;;;33.30;64.20;;;;;;5049801;28;20231;-81
2021/06/09 12:27:37;;;;;;;1.47;0.80;;;33.40;63.60;;;;;;5040181;28;20290;-80
2021/06/09 12:30:07;;;;;;;1.40;0.80;;;33.40;62.20;;;;;;5045650;28;20675;-79
2021/06/09 12:32:37;;;;;;;1.48;0.80;;;33.40;62.10;;;;;;5034462;28;20243;-81
2021/06/09 12:35:09;;;;;;;1.45;0.80;;;33.50;62.90;;;;;;5048387;28;20621;-80
2021/06/09 12:37:52;;;;;;;1.50;0.90;;;33.70;63.60;;;;;;5021224;28;20534;-81
2021/06/09 12:40:28;;;;;;;1.48;0.80;;;33.80;61.60;;;;;;5049877;28;20192;-83
2021/06/09 12:43:04;;;;;;;1.48;0.80;;;33.80;63.10;;;;;;5023261;28;20262;-82
2021/06/09 12:48:50;;;;;;;1.48;0.80;;;34.10;60.30;;;;;;5021756;28;20219;-82
2021/06/09 12:51:22;;;;;;;1.48;0.80;;;34.20;61.20;;;;;;5032247;28;20235;-83
2021/06/09 12:53:51;;;;;;;1.45;0.80;;;34.30;61.20;;;;;;5040040;28;20231;-82
2021/06/09 12:56:22;;;;;;;1.40;0.80;;;34.50;61.40;;;;;;5040169;28;20321;-80
2021/06/09 12:58:52;;;;;;;1.73;1.00;;;34.40;60.80;;;;;;5035405;28;20224;-81
2021/06/09 13:01:28;;;;;;;1.45;0.90;;;34.30;61.40;;;;;;5024266;28;20237;-81
2021/06/09 13:03:57;;;;;;;1.48;0.80;;;34.10;59.60;;;;;;5044170;28;20295;-81
2021/06/09 13:06:27;;;;;;;1.42;0.80;;;34.00;61.50;;;;;;5029929;28;20234;-81
2021/06/09 13:09:03;;;;;;;1.42;0.80;;;34.10;60.50;;;;;;5049905;28;20211;-80
2021/06/09 13:11:31;;;;;;;1.42;0.80;;;34.10;59.60;;;;;;5029783;28;20439;-81
2021/06/09 13:14:03;;;;;;;1.45;0.80;;;33.90;60.70;;;;;;5045617;28;20226;-81
2021/06/09 13:16:34;;;;;;;1.40;0.80;;;33.70;59.80;;;;;;5036549;28;20238;-81